createdAt,value
2018-05-14T00:02:13.921Z,13.60
2018-05-14T00:04:41.477Z,13.60
2018-05-14T00:07:09.040Z,13.70
2018-05-14T00:09:36.603Z,13.60
2018-05-14T00:12:04.179Z,13.60
2018-05-14T00:14:31.736Z,13.50
2018-05-14T00:16:59.335Z,13.50
2018-05-14T00:19:27.655Z,13.70
2018-05-14T00:21:55.226Z,13.70
2018-05-14T00:24:22.792Z,13.70
2018-05-14T00:26:50.414Z,13.70
2018-05-14T00:29:18.029Z,13.60
2018-05-14T00:31:45.599Z,13.60
2018-05-14T00:34:13.232Z,13.60
2018-05-14T00:36:40.798Z,13.60
2018-05-14T00:39:08.351Z,13.70
2018-05-14T00:41:35.988Z,13.60
2018-05-14T00:44:03.576Z,13.70
2018-05-14T00:46:31.187Z,13.60
2018-05-14T00:48:59.551Z,13.50
2018-05-14T00:51:27.184Z,13.50
2018-05-14T00:53:55.022Z,13.50
2018-05-14T00:56:22.687Z,13.50
2018-05-14T00:58:50.251Z,13.60
2018-05-14T01:01:17.828Z,13.60
2018-05-14T01:03:45.403Z,13.60
2018-05-14T01:06:12.955Z,13.60
2018-05-14T01:08:40.541Z,13.60
2018-05-14T01:11:08.105Z,13.70
2018-05-14T01:13:36.447Z,13.70
2018-05-14T01:16:04.023Z,13.70
2018-05-14T01:18:31.600Z,13.70
2018-05-14T01:20:59.936Z,13.70
2018-05-14T01:23:27.518Z,13.70
2018-05-14T01:25:55.085Z,13.70
2018-05-14T01:28:22.692Z,13.60
2018-05-14T01:30:50.277Z,13.70
2018-05-14T01:33:17.827Z,13.70
2018-05-14T01:35:45.407Z,13.70
2018-05-14T01:38:12.960Z,13.80
2018-05-14T01:40:40.545Z,13.80
2018-05-14T01:43:08.109Z,13.80
2018-05-14T01:45:35.678Z,13.70
2018-05-14T01:48:03.220Z,13.70
2018-05-14T01:50:30.780Z,13.70
2018-05-14T01:52:58.338Z,13.70
2018-05-14T01:55:25.929Z,13.70
2018-05-14T01:57:54.428Z,13.70
2018-05-14T02:00:22.076Z,13.60
2018-05-14T02:02:50.397Z,13.70
2018-05-14T02:05:17.974Z,13.70
2018-05-14T02:07:45.549Z,13.70
2018-05-14T02:10:13.112Z,13.60
2018-05-14T02:12:40.670Z,13.60
2018-05-14T02:15:08.299Z,13.60
2018-05-14T02:17:35.871Z,13.70
2018-05-14T02:20:03.419Z,13.60
2018-05-14T02:22:31.039Z,13.70
2018-05-14T02:24:58.573Z,13.70
2018-05-14T02:27:26.143Z,13.80
2018-05-14T02:29:54.596Z,13.70
2018-05-14T02:32:22.204Z,13.70
2018-05-14T02:34:50.533Z,13.80
2018-05-14T02:37:18.109Z,13.70
2018-05-14T02:39:45.671Z,13.80
2018-05-14T02:42:13.306Z,13.80
2018-05-14T02:44:40.887Z,13.90
2018-05-14T02:47:08.469Z,13.80
2018-05-14T02:49:36.051Z,13.80
2018-05-14T02:52:03.667Z,13.80
2018-05-14T02:54:31.273Z,13.80
2018-05-14T02:56:58.851Z,13.90
2018-05-14T02:59:26.410Z,13.90
2018-05-14T03:01:53.984Z,13.90
2018-05-14T03:04:21.627Z,13.90
2018-05-14T03:06:49.187Z,13.80
2018-05-14T03:09:16.760Z,13.80
2018-05-14T03:11:44.340Z,13.80
2018-05-14T03:14:11.969Z,13.80
2018-05-14T03:16:39.524Z,13.80
2018-05-14T03:19:07.109Z,13.80
2018-05-14T03:21:34.804Z,13.70
2018-05-14T03:24:02.416Z,13.70
2018-05-14T03:26:29.962Z,13.70
2018-05-14T03:28:57.534Z,13.70
2018-05-14T03:31:25.122Z,13.70
2018-05-14T03:33:52.803Z,13.70
2018-05-14T03:36:20.451Z,13.70
2018-05-14T03:38:48.005Z,13.70
2018-05-14T03:41:15.577Z,13.80
2018-05-14T03:43:43.144Z,13.80
2018-05-14T03:46:10.715Z,13.80
2018-05-14T03:48:38.275Z,13.80
2018-05-14T03:51:05.854Z,13.80
2018-05-14T03:53:34.262Z,13.80
2018-05-14T03:56:01.925Z,13.80
2018-05-14T03:58:41.299Z,13.80
2018-05-14T04:01:15.777Z,13.80
2018-05-14T04:03:55.135Z,13.90
2018-05-14T04:06:43.548Z,13.80
2018-05-14T04:09:11.236Z,13.90
2018-05-14T04:11:38.799Z,13.80
2018-05-14T04:14:06.554Z,13.80
2018-05-14T04:16:39.048Z,13.80
2018-05-14T04:19:08.240Z,13.80
2018-05-14T04:21:35.819Z,13.80
2018-05-14T04:24:03.380Z,13.80
2018-05-14T04:26:31.014Z,13.80
2018-05-14T04:28:58.556Z,13.90
2018-05-14T04:31:26.140Z,13.90
2018-05-14T04:33:53.697Z,13.90
2018-05-14T04:36:21.253Z,14.00
2018-05-14T04:38:48.835Z,14.00
2018-05-14T04:41:16.409Z,14.10
2018-05-14T04:43:44.135Z,14.10
2018-05-14T04:46:11.803Z,14.20
2018-05-14T04:48:39.407Z,14.20
2018-05-14T04:51:06.980Z,14.40
2018-05-14T04:53:35.305Z,14.30
2018-05-14T04:56:03.003Z,14.30
2018-05-14T04:58:30.580Z,14.40
2018-05-14T05:00:58.956Z,14.40
2018-05-14T05:03:27.288Z,14.50
2018-05-14T05:05:54.835Z,14.40
2018-05-14T05:08:22.417Z,14.60
2018-05-14T05:10:49.979Z,14.50
2018-05-14T05:13:17.563Z,14.50
2018-05-14T05:15:45.116Z,14.50
2018-05-14T05:18:13.451Z,14.60
2018-05-14T05:20:41.012Z,14.60
2018-05-14T05:23:08.582Z,14.60
2018-05-14T05:25:36.152Z,14.60
2018-05-14T05:28:03.747Z,14.70
2018-05-14T05:30:31.301Z,14.80
2018-05-14T05:32:58.904Z,14.90
2018-05-14T05:35:26.474Z,15.00
2018-05-14T05:37:54.030Z,15.00
2018-05-14T05:40:21.605Z,15.00
2018-05-14T05:42:49.185Z,15.00
2018-05-14T05:45:16.757Z,15.10
2018-05-14T05:47:44.447Z,15.10
2018-05-14T05:50:12.928Z,15.10
2018-05-14T05:52:41.247Z,15.30
2018-05-14T05:55:08.867Z,15.30
2018-05-14T05:57:37.208Z,15.40
2018-05-14T06:00:07.521Z,15.40
2018-05-14T06:02:35.071Z,15.40
2018-05-14T06:05:02.669Z,15.70
2018-05-14T06:07:30.297Z,15.90
2018-05-14T06:09:57.815Z,16.00
2018-05-14T06:12:26.342Z,15.80
2018-05-14T06:14:53.879Z,15.80
2018-05-14T06:17:21.446Z,16.10
2018-05-14T06:19:49.007Z,16.50
2018-05-14T06:22:16.675Z,16.40
2018-05-14T06:24:44.220Z,16.50
2018-05-14T06:27:11.800Z,16.20
2018-05-14T06:29:39.352Z,16.30
2018-05-14T06:32:06.929Z,16.40
2018-05-14T06:34:34.495Z,16.30
2018-05-14T06:37:02.196Z,16.20
2018-05-14T06:39:30.840Z,16.40
2018-05-14T06:41:58.576Z,16.30
2018-05-14T06:44:26.248Z,16.60
2018-05-14T06:46:53.761Z,16.80
2018-05-14T06:49:21.463Z,16.80
2018-05-14T06:51:49.028Z,16.80
2018-05-14T06:54:16.588Z,16.70
2018-05-14T06:56:44.137Z,16.90
2018-05-14T06:59:11.722Z,17.10
2018-05-14T07:01:39.264Z,17.40
2018-05-14T07:04:06.839Z,17.70
2018-05-14T07:06:34.406Z,17.80
2018-05-14T07:09:02.036Z,18.00
2018-05-14T07:11:29.632Z,18.10
2018-05-14T07:13:57.343Z,17.90
2018-05-14T07:16:25.665Z,17.80
2018-05-14T07:18:53.401Z,17.80
2018-05-14T07:21:21.078Z,17.80
2018-05-14T07:23:48.760Z,18.10
2018-05-14T07:26:16.384Z,18.00
2018-05-14T07:28:44.101Z,18.00
2018-05-14T07:31:11.845Z,18.20
2018-05-14T07:33:39.487Z,18.20
2018-05-14T07:36:07.064Z,18.20
2018-05-14T07:38:34.632Z,18.30
2018-05-14T07:41:02.208Z,18.30
2018-05-14T07:43:29.775Z,18.30
2018-05-14T07:45:57.373Z,18.30
2018-05-14T07:48:24.924Z,18.30
2018-05-14T07:50:52.495Z,18.20
2018-05-14T07:53:20.037Z,18.40
2018-05-14T07:55:48.396Z,18.40
2018-05-14T07:58:16.003Z,18.40
2018-05-14T08:00:43.580Z,18.40
2018-05-14T08:03:11.229Z,18.20
2018-05-14T08:05:38.909Z,18.30
2018-05-14T08:08:06.383Z,18.40
2018-05-14T08:10:33.950Z,18.60
2018-05-14T08:13:01.521Z,18.60
2018-05-14T08:15:29.200Z,19.10
2018-05-14T08:17:57.558Z,19.50
2018-05-14T08:20:25.112Z,19.50
2018-05-14T08:22:52.695Z,19.70
2018-05-14T08:25:21.086Z,19.90
2018-05-14T08:27:49.456Z,20.00
2018-05-14T08:30:17.786Z,19.90
2018-05-14T08:32:45.334Z,19.90
2018-05-14T08:35:12.922Z,19.40
2018-05-14T08:37:40.464Z,19.20
2018-05-14T08:40:08.088Z,19.50
2018-05-14T08:42:35.638Z,19.60
2018-05-14T08:45:03.964Z,20.00
2018-05-14T08:47:31.519Z,20.00
2018-05-14T08:49:59.107Z,19.80
2018-05-14T08:52:26.661Z,19.80
2018-05-14T08:54:54.240Z,20.00
2018-05-14T08:57:21.863Z,20.00
2018-05-14T08:59:49.411Z,20.20
2018-05-14T09:02:16.980Z,20.20
2018-05-14T09:04:44.555Z,20.40
2018-05-14T09:07:12.242Z,20.40
2018-05-14T09:09:40.576Z,20.60
2018-05-14T09:12:08.132Z,20.60
2018-05-14T09:14:35.708Z,20.60
2018-05-14T09:17:03.283Z,20.60
2018-05-14T09:19:30.935Z,20.60
2018-05-14T09:21:59.252Z,20.50
2018-05-14T09:24:27.663Z,20.40
2018-05-14T09:26:55.239Z,20.40
2018-05-14T09:29:22.792Z,20.40
2018-05-14T09:31:50.360Z,20.60
2018-05-14T09:34:18.011Z,20.40
2018-05-14T09:36:45.567Z,20.30
2018-05-14T09:39:13.195Z,20.30
2018-05-14T09:41:41.536Z,20.60
2018-05-14T09:44:09.112Z,20.60
2018-05-14T09:46:36.688Z,20.50
2018-05-14T09:49:05.012Z,20.60
2018-05-14T09:51:32.573Z,20.50
2018-05-14T09:54:00.131Z,20.80
2018-05-14T09:56:27.867Z,20.90
2018-05-14T09:58:55.437Z,20.90
2018-05-14T10:01:23.108Z,20.90
2018-05-14T10:03:50.676Z,20.90
2018-05-14T10:06:18.276Z,21.00
2018-05-14T10:08:45.895Z,21.20
2018-05-14T10:11:13.496Z,21.30
2018-05-14T10:13:41.133Z,21.30
2018-05-14T10:16:09.387Z,21.60
2018-05-14T10:18:37.064Z,21.60
2018-05-14T10:21:04.678Z,21.60
2018-05-14T10:23:33.002Z,21.50
2018-05-14T10:26:00.608Z,21.50
2018-05-14T10:28:28.256Z,21.50
2018-05-14T10:30:55.811Z,21.50
2018-05-14T10:33:23.383Z,21.50
2018-05-14T10:35:50.950Z,21.50
2018-05-14T10:38:18.527Z,21.50
2018-05-14T10:40:46.914Z,21.70
2018-05-14T10:43:15.980Z,21.80
2018-05-14T10:45:43.613Z,21.80
2018-05-14T10:48:11.163Z,21.80
2018-05-14T10:50:38.828Z,21.70
2018-05-14T10:53:06.474Z,21.70
2018-05-14T10:55:34.059Z,21.80
2018-05-14T10:58:01.629Z,21.80
2018-05-14T11:00:29.204Z,21.80
2018-05-14T11:02:56.747Z,21.90
2018-05-14T11:05:24.339Z,22.00
2018-05-14T11:07:51.876Z,22.20
2018-05-14T11:10:19.591Z,22.30
2018-05-14T11:12:47.160Z,22.40
2018-05-14T11:15:14.869Z,22.40
2018-05-14T11:17:42.484Z,22.40
2018-05-14T11:20:10.087Z,22.50
2018-05-14T11:22:37.639Z,22.50
2018-05-14T11:25:05.311Z,22.60
2018-05-14T11:27:32.958Z,22.60
2018-05-14T11:30:00.487Z,22.60
2018-05-14T11:32:28.075Z,22.80
2018-05-14T11:34:55.632Z,22.80
2018-05-14T11:37:23.223Z,22.90
2018-05-14T11:39:50.788Z,23.00
2018-05-14T11:42:19.358Z,23.30
2018-05-14T11:44:46.898Z,23.30
2018-05-14T11:47:14.491Z,23.40
2018-05-14T11:49:42.811Z,23.70
2018-05-14T11:52:10.560Z,23.70
2018-05-14T11:54:39.038Z,23.90
2018-05-14T11:57:06.596Z,23.90
2018-05-14T11:59:34.920Z,24.00
2018-05-14T12:02:02.496Z,24.00
2018-05-14T12:04:30.060Z,24.20
2018-05-14T12:06:59.307Z,24.10
2018-05-14T12:09:26.873Z,24.10
2018-05-14T12:11:54.438Z,24.40
2018-05-14T12:14:22.184Z,24.70
2018-05-14T12:16:49.758Z,24.80
2018-05-14T12:19:17.336Z,24.70
2018-05-14T12:21:44.895Z,24.90
2018-05-14T12:24:12.479Z,24.80
2018-05-14T12:26:40.070Z,24.70
2018-05-14T12:29:08.530Z,24.50
2018-05-14T12:31:36.098Z,24.50
2018-05-14T12:34:03.640Z,24.30
2018-05-14T12:36:31.291Z,24.30
2018-05-14T12:38:58.856Z,24.20
2018-05-14T12:41:26.427Z,24.20
2018-05-14T12:43:54.012Z,24.20
2018-05-14T12:46:22.328Z,24.60
2018-05-14T12:48:49.898Z,24.60
2018-05-14T12:51:17.502Z,24.80
2018-05-14T12:53:45.100Z,25.10
2018-05-14T12:56:12.707Z,24.70
2018-05-14T12:58:40.424Z,24.70
2018-05-14T13:01:08.042Z,24.50
2018-05-14T13:03:35.584Z,24.40
2018-05-14T13:06:03.270Z,24.30
2018-05-14T13:08:30.859Z,24.00
2018-05-14T13:10:58.457Z,24.10
2018-05-14T13:13:26.127Z,24.10
2018-05-14T13:15:53.862Z,23.80
2018-05-14T13:18:21.416Z,23.60
2018-05-14T13:20:49.060Z,23.60
2018-05-14T13:23:17.367Z,23.60
2018-05-14T13:25:44.958Z,23.80
2018-05-14T13:28:12.531Z,24.00
2018-05-14T13:30:40.960Z,24.50
2018-05-14T13:33:08.512Z,24.50
2018-05-14T13:35:36.152Z,24.60
2018-05-14T13:38:04.720Z,24.70
2018-05-14T13:40:32.032Z,24.70
2018-05-14T13:42:59.679Z,24.70
2018-05-14T13:45:27.217Z,24.80
2018-05-14T13:47:54.796Z,25.00
2018-05-14T13:50:22.360Z,25.10
2018-05-14T13:52:49.945Z,25.30
2018-05-14T13:55:17.492Z,25.30
2018-05-14T13:57:45.183Z,25.30
2018-05-14T14:00:12.909Z,25.40
2018-05-14T14:02:40.571Z,25.30
2018-05-14T14:05:08.161Z,25.30
2018-05-14T14:07:35.732Z,25.30
2018-05-14T14:10:03.284Z,25.40
2018-05-14T14:12:30.876Z,25.40
2018-05-14T14:14:59.193Z,25.50
2018-05-14T14:17:26.894Z,25.50
2018-05-14T14:19:54.474Z,25.50
2018-05-14T14:22:22.036Z,25.60
2018-05-14T14:24:50.488Z,25.70
2018-05-14T14:27:18.052Z,25.70
2018-05-14T14:29:45.763Z,25.80
2018-05-14T14:32:13.239Z,25.90
2018-05-14T14:34:40.809Z,25.90
2018-05-14T14:37:08.395Z,25.90
2018-05-14T14:39:36.068Z,25.70
2018-05-14T14:42:03.675Z,25.70
2018-05-14T14:44:31.986Z,25.70
2018-05-14T14:46:59.532Z,25.60
2018-05-14T14:49:27.141Z,25.70
2018-05-14T14:51:54.683Z,25.70
2018-05-14T14:54:22.310Z,25.80
2018-05-14T14:56:49.878Z,25.80
2018-05-14T14:59:17.543Z,25.70
2018-05-14T15:01:45.121Z,25.80
2018-05-14T15:04:12.735Z,25.70
2018-05-14T15:06:40.303Z,25.80
2018-05-14T15:09:07.863Z,25.80
2018-05-14T15:11:35.430Z,25.70
2018-05-14T15:14:02.987Z,25.70
2018-05-14T15:16:30.553Z,25.70
2018-05-14T15:18:58.128Z,25.80
2018-05-14T15:21:25.696Z,25.80
2018-05-14T15:23:53.284Z,25.90
2018-05-14T15:26:21.616Z,25.90
2018-05-14T15:28:49.220Z,25.90
2018-05-14T15:31:17.539Z,26.00
2018-05-14T15:33:45.104Z,26.00
2018-05-14T15:36:12.688Z,26.10
2018-05-14T15:38:40.244Z,26.10
2018-05-14T15:41:07.810Z,26.10
2018-05-14T15:43:35.370Z,26.20
2018-05-14T15:46:02.916Z,26.20
2018-05-14T15:48:30.502Z,26.10
2018-05-14T15:50:58.047Z,26.30
2018-05-14T15:53:25.614Z,26.50
2018-05-14T15:55:53.152Z,26.70
2018-05-14T15:58:20.776Z,26.80
2018-05-14T16:00:48.377Z,26.80
2018-05-14T16:03:16.068Z,26.60
2018-05-14T16:05:43.671Z,26.40
2018-05-14T16:08:11.310Z,26.40
2018-05-14T16:10:38.876Z,26.00
2018-05-14T16:13:07.244Z,25.90
2018-05-14T16:15:35.635Z,25.80
2018-05-14T16:18:03.968Z,25.70
2018-05-14T16:20:31.576Z,25.70
2018-05-14T16:23:00.037Z,25.60
2018-05-14T16:25:27.586Z,25.60
2018-05-14T16:27:55.143Z,25.60
2018-05-14T16:30:22.699Z,25.60
2018-05-14T16:32:50.251Z,25.40
2018-05-14T16:35:17.807Z,25.50
2018-05-14T16:37:45.352Z,25.40
2018-05-14T16:40:12.924Z,25.30
2018-05-14T16:42:40.574Z,25.30
2018-05-14T16:45:08.125Z,25.30
2018-05-14T16:47:35.743Z,25.40
2018-05-14T16:50:03.288Z,25.30
2018-05-14T16:52:30.837Z,25.30
2018-05-14T16:54:58.548Z,25.30
2018-05-14T16:57:26.119Z,25.30
2018-05-14T16:59:53.736Z,25.30
2018-05-14T17:02:21.336Z,25.20
2018-05-14T17:04:48.918Z,25.30
2018-05-14T17:07:16.459Z,25.20
2018-05-14T17:09:44.059Z,25.30
2018-05-14T17:12:11.592Z,25.30
2018-05-14T17:14:39.284Z,25.30
2018-05-14T17:17:06.835Z,25.40
2018-05-14T17:19:34.392Z,25.30
2018-05-14T17:22:02.006Z,25.20
2018-05-14T17:24:30.332Z,25.30
2018-05-14T17:26:57.884Z,25.30
2018-05-14T17:29:25.435Z,25.40
2018-05-14T17:31:53.002Z,25.30
2018-05-14T17:34:20.590Z,25.40
2018-05-14T17:36:48.155Z,25.40
2018-05-14T17:39:15.753Z,25.40
2018-05-14T17:41:43.344Z,25.30
2018-05-14T17:44:10.916Z,25.20
2018-05-14T17:46:38.565Z,25.20
2018-05-14T17:49:06.168Z,25.20
2018-05-14T17:51:33.784Z,25.10
2018-05-14T17:54:01.466Z,25.10
2018-05-14T17:56:29.041Z,25.00
2018-05-14T17:58:56.624Z,24.90
2018-05-14T18:01:24.228Z,24.80
2018-05-14T18:03:51.860Z,24.80
2018-05-14T18:06:20.248Z,24.60
2018-05-14T18:08:48.685Z,24.60
2018-05-14T18:11:16.319Z,24.60
2018-05-14T18:13:43.924Z,24.60
2018-05-14T18:16:12.297Z,24.50
2018-05-14T18:18:40.418Z,24.40
2018-05-14T18:21:12.078Z,24.30
2018-05-14T18:23:45.301Z,24.30
2018-05-14T18:26:17.614Z,24.20
2018-05-14T18:28:48.935Z,24.00
2018-05-14T18:31:22.187Z,24.00
2018-05-14T18:33:49.768Z,24.00
2018-05-14T18:36:17.433Z,23.90
2018-05-14T18:38:45.116Z,23.80
2018-05-14T18:41:13.495Z,23.60
2018-05-14T18:43:41.104Z,23.60
2018-05-14T18:46:08.678Z,23.60
2018-05-14T18:48:36.385Z,23.60
2018-05-14T18:51:04.016Z,23.60
2018-05-14T18:53:31.627Z,23.50
2018-05-14T18:55:59.952Z,23.30
2018-05-14T18:58:27.563Z,23.30
2018-05-14T19:00:55.936Z,23.10
2018-05-14T19:03:24.264Z,23.00
2018-05-14T19:05:51.834Z,23.00
2018-05-14T19:08:19.429Z,23.00
2018-05-14T19:10:52.771Z,22.80
2018-05-14T19:13:20.371Z,22.80
2018-05-14T19:15:53.594Z,22.60
2018-05-14T19:18:21.151Z,22.60
2018-05-14T19:20:49.558Z,22.50
2018-05-14T19:23:22.688Z,22.50
2018-05-14T19:25:50.282Z,22.50
2018-05-14T19:28:24.280Z,22.40
2018-05-14T19:30:51.885Z,22.40
2018-05-14T19:33:24.971Z,22.30
2018-05-14T19:36:00.079Z,22.20
2018-05-14T19:38:27.642Z,22.20
2018-05-14T19:40:55.970Z,21.80
2018-05-14T19:43:23.612Z,21.80
2018-05-14T19:45:51.197Z,21.70
2018-05-14T19:48:18.760Z,21.60
2018-05-14T19:50:46.440Z,21.50
2018-05-14T19:53:13.999Z,21.50
2018-05-14T19:55:41.608Z,21.40
2018-05-14T19:58:09.120Z,21.40
2018-05-14T20:00:36.768Z,21.40
2018-05-14T20:03:04.359Z,21.30
2018-05-14T20:05:31.907Z,21.30
2018-05-14T20:07:59.503Z,21.10
2018-05-14T20:10:27.080Z,21.00
2018-05-14T20:12:54.741Z,20.90
2018-05-14T20:15:22.208Z,20.70
2018-05-14T20:17:49.872Z,20.50
2018-05-14T20:20:17.444Z,20.50
2018-05-14T20:22:45.067Z,20.40
2018-05-14T20:25:12.627Z,20.30
2018-05-14T20:27:40.209Z,20.20
2018-05-14T20:30:08.673Z,20.10
2018-05-14T20:32:36.331Z,20.10
2018-05-14T20:35:03.872Z,20.00
2018-05-14T20:37:32.276Z,19.80
2018-05-14T20:40:00.774Z,19.80
2018-05-14T20:42:28.422Z,19.70
2018-05-14T20:44:55.997Z,19.80
2018-05-14T20:47:23.584Z,19.70
2018-05-14T20:49:51.178Z,19.70
2018-05-14T20:52:19.499Z,19.80
2018-05-14T20:54:47.064Z,19.80
2018-05-14T20:57:14.643Z,19.80
2018-05-14T20:59:42.280Z,19.70
2018-05-14T21:02:10.565Z,19.60
2018-05-14T21:04:38.149Z,19.50
2018-05-14T21:07:05.701Z,19.60
2018-05-14T21:09:33.275Z,19.70
2018-05-14T21:12:00.814Z,19.60
2018-05-14T21:14:28.388Z,19.60
2018-05-14T21:16:55.953Z,19.60
2018-05-14T21:19:23.496Z,19.50
2018-05-14T21:21:51.067Z,19.40
2018-05-14T21:24:18.821Z,19.40
2018-05-14T21:26:46.392Z,19.40
2018-05-14T21:29:13.943Z,19.40
2018-05-14T21:31:41.522Z,19.30
2018-05-14T21:34:09.076Z,19.20
2018-05-14T21:36:36.656Z,19.10
2018-05-14T21:39:05.605Z,19.00
2018-05-14T21:41:33.233Z,19.00
2018-05-14T21:44:00.914Z,19.10
2018-05-14T21:46:28.472Z,19.00
2018-05-14T21:48:56.022Z,18.90
2018-05-14T21:51:23.627Z,18.80
2018-05-14T21:53:52.700Z,18.60
2018-05-14T21:56:20.273Z,18.60
2018-05-14T21:58:47.887Z,18.50
2018-05-14T22:01:15.521Z,18.40
2018-05-14T22:03:44.018Z,18.30
2018-05-14T22:06:12.553Z,18.30
2018-05-14T22:08:40.152Z,18.30
2018-05-14T22:11:08.507Z,18.30
2018-05-14T22:13:36.204Z,18.20
2018-05-14T22:16:03.832Z,18.20
2018-05-14T22:18:31.408Z,18.20
2018-05-14T22:20:58.979Z,18.20
2018-05-14T22:23:27.396Z,18.10
2018-05-14T22:25:55.032Z,18.00
2018-05-14T22:28:22.670Z,18.00
2018-05-14T22:30:50.235Z,18.00
2018-05-14T22:33:17.846Z,18.00
2018-05-14T22:35:45.440Z,17.90
2018-05-14T22:38:13.040Z,17.90
2018-05-14T22:40:40.611Z,17.80
2018-05-14T22:43:08.158Z,17.70
2018-05-14T22:45:35.731Z,17.60
2018-05-14T22:48:03.321Z,17.60
2018-05-14T22:50:30.876Z,17.50
2018-05-14T22:52:58.464Z,17.50
2018-05-14T22:55:26.792Z,17.40
2018-05-14T22:57:54.460Z,17.40
2018-05-14T23:00:24.800Z,17.40
2018-05-14T23:02:52.361Z,17.40
2018-05-14T23:05:19.963Z,17.40
2018-05-14T23:07:48.295Z,17.20
2018-05-14T23:10:15.865Z,17.20
2018-05-14T23:12:43.488Z,17.20
2018-05-14T23:15:11.060Z,17.10
2018-05-14T23:17:38.613Z,17.00
2018-05-14T23:20:06.212Z,16.90
2018-05-14T23:22:41.657Z,16.80
2018-05-14T23:25:09.244Z,16.70
2018-05-14T23:27:36.804Z,16.60
2018-05-14T23:30:04.349Z,16.60
2018-05-14T23:32:31.980Z,16.50
2018-05-14T23:34:59.552Z,16.40
2018-05-14T23:37:27.112Z,16.30
2018-05-14T23:39:54.911Z,16.20
2018-05-14T23:42:22.490Z,16.30
2018-05-14T23:44:50.975Z,16.20
2018-05-14T23:47:18.548Z,16.10
2018-05-14T23:49:46.133Z,16.10
2018-05-14T23:52:13.724Z,16.20
2018-05-14T23:54:41.334Z,16.10
2018-05-14T23:57:08.911Z,16.10
2018-05-14T23:59:36.467Z,16.10
